Airfield :
LOGIN :

Register | Disclaimer

   EN    FR    IT 

 










Legend :    VFR   Marginal VFR   IFR   Intensive IFR   Very Intensive IFR
Visi :
Ceiling :
>= 8 km
>= 3000ft
5 to 8 km
1000 to 3000 ft
1500m to 5 km
500 to 1000 ft
800 to 1500m
200 to 500 ft
< 800m
< 200 ft
Symbols :   Thunderstorms  Fog  Heavy snow  Heavy precipitations  Wind > 20 kt
SIGMETs :     Misc.  Thunderstorms  Icing  Turbulence  Mountain Waves  Volcanic Ashes






- Airport Elevation : 640 ft
- IATA code : AOC


EDAC - Altenburg-Nobitz

CURRENT METAR :
  • 161820Z AUTO 18018KT 9999 // NCD 15/M00 Q1007

EXPIRED METARs :
  • 161750Z AUTO 19019G31KT 9999 // NCD 15/00 Q1007
  • 161720Z AUTO 19014G24KT 160V220 9999 // NCD 15/00 Q1008
  • 161650Z AUTO 20018G28KT 9999 // NCD 15/00 Q1009
  • 161620Z AUTO 20020KT 9999 // SCT250/// 15/01 Q1008
  • 161550Z AUTO 20018KT 9999 // BKN230/// 15/01 Q1008

TAF TAF EDAC
Valid from the 16 at 15:00 until the 17 at 00:00 UTC


161400Z 1615/1624 20020G30KT CAVOK
PROB40
TEMPO 1615/1624 21025G40KT



MET'MAP, your aeronautical weather chart ! - Copyright ORBIFLY December 2007 - Disclaimer

ORBIFLY MET'MAP TEAM :

Programming & Development : Alexandra Zaïnal
Concept & original design : Baudouin d'Aumeries
Assistance for programming : Marc-Olivier Méhu
Technical & hardware support : Manuel Goepfert

Contact : metmap@orbifly.com




SOURCES & CREDITS :

   NOAA